sensor_id;sensor_type;location;lat;lon;timestamp;pressure;altitude;pressure_sealevel;temperature;humidity
73171;BME280;61381;50.118;19.962;2023-03-23T00:04:12;98027.03;;;4.63;100.00
73171;BME280;61381;50.118;19.962;2023-03-23T00:09:13;98018.78;;;4.60;100.00
73171;BME280;61381;50.118;19.962;2023-03-23T00:14:17;98021.63;;;4.43;100.00
73171;BME280;61381;50.118;19.962;2023-03-23T00:19:18;98027.19;;;4.46;100.00
73171;BME280;61381;50.118;19.962;2023-03-23T00:24:19;98022.41;;;4.43;100.00
73171;BME280;61381;50.118;19.962;2023-03-23T00:29:22;98020.00;;;4.42;100.00
73171;BME280;61381;50.118;19.962;2023-03-23T00:34:24;98020.00;;;4.42;100.00
73171;BME280;61381;50.118;19.962;2023-03-23T00:39:26;98017.94;;;4.49;100.00
73171;BME280;61381;50.118;19.962;2023-03-23T00:44:30;98012.66;;;4.54;100.00
73171;BME280;61381;50.118;19.962;2023-03-23T00:49:31;98005.78;;;4.58;100.00
73171;BME280;61381;50.118;19.962;2023-03-23T00:54:32;98001.22;;;4.49;100.00
73171;BME280;61381;50.118;19.962;2023-03-23T00:59:35;98005.22;;;4.51;100.00
73171;BME280;61381;50.118;19.962;2023-03-23T01:04:38;97999.53;;;4.75;100.00
73171;BME280;61381;50.118;19.962;2023-03-23T01:09:39;97996.66;;;4.92;100.00
73171;BME280;61381;50.118;19.962;2023-03-23T01:14:42;97998.44;;;4.71;100.00
73171;BME280;61381;50.118;19.962;2023-03-23T01:19:43;97999.91;;;5.14;100.00
73171;BME280;61381;50.118;19.962;2023-03-23T01:24:44;98001.53;;;5.21;100.00
73171;BME280;61381;50.118;19.962;2023-03-23T01:29:47;97992.97;;;5.03;100.00
73171;BME280;61381;50.118;19.962;2023-03-23T01:34:49;98001.81;;;5.24;100.00
73171;BME280;61381;50.118;19.962;2023-03-23T01:39:50;97998.69;;;5.43;100.00
73171;BME280;61381;50.118;19.962;2023-03-23T01:45:30;97992.53;;;5.37;100.00
73171;BME280;61381;50.118;19.962;2023-03-23T01:50:34;98004.47;;;5.24;100.00
73171;BME280;61381;50.118;19.962;2023-03-23T01:55:38;98001.00;;;5.13;100.00
73171;BME280;61381;50.118;19.962;2023-03-23T02:00:42;97999.22;;;5.50;100.00
73171;BME280;61381;50.118;19.962;2023-03-23T02:05:44;97999.22;;;5.55;100.00
73171;BME280;61381;50.118;19.962;2023-03-23T02:10:45;97998.72;;;5.84;100.00
73171;BME280;61381;50.118;19.962;2023-03-23T02:15:54;97994.22;;;5.84;100.00
73171;BME280;61381;50.118;19.962;2023-03-23T02:26:33;97993.16;;;5.70;100.00
73171;BME280;61381;50.118;19.962;2023-03-23T02:32:10;98001.09;;;5.65;100.00
73171;BME280;61381;50.118;19.962;2023-03-23T02:37:19;97989.41;;;5.45;100.00
73171;BME280;61381;50.118;19.962;2023-03-23T02:42:26;97998.97;;;5.51;100.00
73171;BME280;61381;50.118;19.962;2023-03-23T02:47:29;97989.44;;;5.76;100.00
73171;BME280;61381;50.118;19.962;2023-03-23T02:52:33;97987.56;;;5.82;100.00
73171;BME280;61381;50.118;19.962;2023-03-23T02:57:35;97991.81;;;5.67;100.00
73171;BME280;61381;50.118;19.962;2023-03-23T03:02:38;97988.88;;;5.53;100.00
73171;BME280;61381;50.118;19.962;2023-03-23T03:07:49;97985.16;;;5.65;100.00
73171;BME280;61381;50.118;19.962;2023-03-23T03:12:57;97968.94;;;5.92;100.00
73171;BME280;61381;50.118;19.962;2023-03-23T03:18:05;97967.63;;;5.89;100.00
73171;BME280;61381;50.118;19.962;2023-03-23T03:23:10;97974.00;;;5.83;100.00
73171;BME280;61381;50.118;19.962;2023-03-23T03:28:15;97972.94;;;5.69;100.00
73171;BME280;61381;50.118;19.962;2023-03-23T03:33:17;97964.16;;;5.53;100.00
73171;BME280;61381;50.118;19.962;2023-03-23T03:38:20;97964.91;;;5.28;100.00
73171;BME280;61381;50.118;19.962;2023-03-23T03:43:21;97962.75;;;5.09;100.00
73171;BME280;61381;50.118;19.962;2023-03-23T03:48:22;97969.63;;;5.05;100.00
73171;BME280;61381;50.118;19.962;2023-03-23T03:53:25;97959.72;;;4.85;100.00
73171;BME280;61381;50.118;19.962;2023-03-23T03:58:26;97961.53;;;4.69;100.00
73171;BME280;61381;50.118;19.962;2023-03-23T04:03:27;97957.53;;;4.67;100.00
73171;BME280;61381;50.118;19.962;2023-03-23T04:08:30;97962.31;;;4.64;100.00
73171;BME280;61381;50.118;19.962;2023-03-23T04:13:31;97958.03;;;4.58;100.00
73171;BME280;61381;50.118;19.962;2023-03-23T04:18:33;97948.03;;;4.71;100.00
73171;BME280;61381;50.118;19.962;2023-03-23T04:23:36;97956.88;;;5.02;100.00
73171;BME280;61381;50.118;19.962;2023-03-23T04:28:37;97955.59;;;5.15;100.00
73171;BME280;61381;50.118;19.962;2023-03-23T04:33:38;97955.81;;;4.98;100.00
73171;BME280;61381;50.118;19.962;2023-03-23T04:38:41;97960.50;;;4.75;100.00
73171;BME280;61381;50.118;19.962;2023-03-23T04:43:42;97959.41;;;4.61;100.00
73171;BME280;61381;50.118;19.962;2023-03-23T04:48:43;97965.47;;;5.30;100.00
73171;BME280;61381;50.118;19.962;2023-03-23T04:53:46;97964.16;;;5.74;100.00
73171;BME280;61381;50.118;19.962;2023-03-23T04:58:47;97972.16;;;5.74;100.00
73171;BME280;61381;50.118;19.962;2023-03-23T05:03:48;97972.94;;;5.79;100.00
73171;BME280;61381;50.118;19.962;2023-03-23T05:08:50;97975.06;;;5.82;100.00
73171;BME280;61381;50.118;19.962;2023-03-23T05:13:52;97972.97;;;6.05;100.00
73171;BME280;61381;50.118;19.962;2023-03-23T05:18:53;97978.56;;;6.09;100.00
73171;BME280;61381;50.118;19.962;2023-03-23T05:23:55;97975.59;;;6.25;100.00
73171;BME280;61381;50.118;19.962;2023-03-23T05:28:57;97978.72;;;6.53;100.00
73171;BME280;61381;50.118;19.962;2023-03-23T05:33:58;97976.31;;;6.62;100.00
73171;BME280;61381;50.118;19.962;2023-03-23T05:39:00;97968.59;;;6.66;100.00
73171;BME280;61381;50.118;19.962;2023-03-23T05:44:01;97970.16;;;6.72;100.00
73171;BME280;61381;50.118;19.962;2023-03-23T05:49:03;97977.28;;;6.92;100.00
73171;BME280;61381;50.118;19.962;2023-03-23T05:54:05;97983.06;;;7.04;100.00
73171;BME280;61381;50.118;19.962;2023-03-23T05:59:07;97987.19;;;7.36;100.00
73171;BME280;61381;50.118;19.962;2023-03-23T06:04:08;97990.84;;;7.90;100.00
73171;BME280;61381;50.118;19.962;2023-03-23T06:09:11;97989.44;;;8.56;100.00
73171;BME280;61381;50.118;19.962;2023-03-23T06:14:12;97987.06;;;9.41;100.00
73171;BME280;61381;50.118;19.962;2023-03-23T06:19:13;97991.69;;;10.40;100.00
73171;BME280;61381;50.118;19.962;2023-03-23T06:24:16;97987.44;;;11.22;100.00
73171;BME280;61381;50.118;19.962;2023-03-23T06:29:17;98004.34;;;12.18;100.00
73171;BME280;61381;50.118;19.962;2023-03-23T06:34:18;98002.31;;;12.55;100.00
73171;BME280;61381;50.118;19.962;2023-03-23T06:39:20;97999.53;;;12.69;100.00
73171;BME280;61381;50.118;19.962;2023-03-23T06:44:21;98010.38;;;12.87;100.00
73171;BME280;61381;50.118;19.962;2023-03-23T06:49:23;98002.47;;;12.90;100.00
73171;BME280;61381;50.118;19.962;2023-03-23T06:54:25;97999.03;;;13.07;100.00
73171;BME280;61381;50.118;19.962;2023-03-23T06:59:26;98003.75;;;12.93;100.00
73171;BME280;61381;50.118;19.962;2023-03-23T07:04:27;98013.59;;;12.66;100.00
73171;BME280;61381;50.118;19.962;2023-03-23T07:09:30;98011.16;;;12.87;100.00
73171;BME280;61381;50.118;19.962;2023-03-23T07:14:31;98005.19;;;12.99;100.00
73171;BME280;61381;50.118;19.962;2023-03-23T07:19:32;98004.44;;;13.16;100.00
73171;BME280;61381;50.118;19.962;2023-03-23T07:24:35;98008.78;;;13.52;100.00
73171;BME280;61381;50.118;19.962;2023-03-23T07:29:36;98016.38;;;14.02;100.00
73171;BME280;61381;50.118;19.962;2023-03-23T07:34:37;98015.41;;;14.16;100.00
73171;BME280;61381;50.118;19.962;2023-03-23T07:39:40;98015.22;;;14.38;100.00
73171;BME280;61381;50.118;19.962;2023-03-23T07:44:41;98022.59;;;14.59;100.00
73171;BME280;61381;50.118;19.962;2023-03-23T07:49:42;98029.66;;;14.90;100.00
73171;BME280;61381;50.118;19.962;2023-03-23T07:54:45;98025.56;;;15.22;97.49
73171;BME280;61381;50.118;19.962;2023-03-23T07:59:46;98022.47;;;15.83;96.82
73171;BME280;61381;50.118;19.962;2023-03-23T08:04:47;98029.13;;;16.19;91.40
73171;BME280;61381;50.118;19.962;2023-03-23T08:09:49;98028.69;;;16.17;92.20
73171;BME280;61381;50.118;19.962;2023-03-23T08:14:50;98025.56;;;15.94;92.85
73171;BME280;61381;50.118;19.962;2023-03-23T08:19:52;98038.59;;;15.92;91.54
73171;BME280;61381;50.118;19.962;2023-03-23T08:24:54;98031.28;;;15.93;92.98
73171;BME280;61381;50.118;19.962;2023-03-23T08:29:55;98041.22;;;16.01;91.52
73171;BME280;61381;50.118;19.962;2023-03-23T08:34:56;98038.63;;;16.04;93.51
73171;BME280;61381;50.118;19.962;2023-03-23T08:39:59;98030.13;;;16.15;93.07
73171;BME280;61381;50.118;19.962;2023-03-23T08:45:00;98031.66;;;16.03;94.68
73171;BME280;61381;50.118;19.962;2023-03-23T08:50:01;98032.38;;;16.13;92.69
73171;BME280;61381;50.118;19.962;2023-03-23T08:55:05;98023.78;;;16.44;92.80
73171;BME280;61381;50.118;19.962;2023-03-23T09:00:08;98041.72;;;17.07;88.92
73171;BME280;61381;50.118;19.962;2023-03-23T09:05:10;98041.25;;;17.05;86.36
73171;BME280;61381;50.118;19.962;2023-03-23T09:10:13;98034.34;;;17.57;84.31
73171;BME280;61381;50.118;19.962;2023-03-23T09:15:16;98043.84;;;17.38;80.41
73171;BME280;61381;50.118;19.962;2023-03-23T09:20:20;98045.41;;;17.27;81.36
73171;BME280;61381;50.118;19.962;2023-03-23T09:25:25;98034.22;;;17.53;77.35
73171;BME280;61381;50.118;19.962;2023-03-23T09:30:27;98030.94;;;17.60;76.35
73171;BME280;61381;50.118;19.962;2023-03-23T09:35:29;98035.31;;;17.77;73.71
73171;BME280;61381;50.118;19.962;2023-03-23T09:40:39;98029.09;;;18.17;71.04
73171;BME280;61381;50.118;19.962;2023-03-23T09:45:48;98031.97;;;18.68;67.87
73171;BME280;61381;50.118;19.962;2023-03-23T09:50:58;98029.03;;;18.29;69.79
73171;BME280;61381;50.118;19.962;2023-03-23T09:56:08;98020.31;;;18.52;67.58
73171;BME280;61381;50.118;19.962;2023-03-23T10:01:16;98021.28;;;18.44;66.17
73171;BME280;61381;50.118;19.962;2023-03-23T10:06:18;98015.50;;;18.77;62.92
73171;BME280;61381;50.118;19.962;2023-03-23T10:11:28;98011.44;;;18.99;60.65
73171;BME280;61381;50.118;19.962;2023-03-23T10:16:36;98005.50;;;18.33;60.70
73171;BME280;61381;50.118;19.962;2023-03-23T10:21:43;98008.16;;;18.46;60.19
73171;BME280;61381;50.118;19.962;2023-03-23T10:26:55;98001.59;;;18.47;60.32
73171;BME280;61381;50.118;19.962;2023-03-23T10:32:02;97993.09;;;18.32;58.70
73171;BME280;61381;50.118;19.962;2023-03-23T10:37:10;97991.09;;;18.61;55.14
73171;BME280;61381;50.118;19.962;2023-03-23T10:42:21;97985.31;;;19.11;53.09
73171;BME280;61381;50.118;19.962;2023-03-23T10:47:23;97985.41;;;18.98;48.04
73171;BME280;61381;50.118;19.962;2023-03-23T10:52:29;97969.84;;;19.31;48.26
73171;BME280;61381;50.118;19.962;2023-03-23T10:57:34;97971.72;;;19.27;48.87
73171;BME280;61381;50.118;19.962;2023-03-23T11:02:41;97967.13;;;19.31;49.16
73171;BME280;61381;50.118;19.962;2023-03-23T11:07:49;97970.94;;;19.10;47.95
73171;BME280;61381;50.118;19.962;2023-03-23T11:12:53;97962.06;;;19.49;49.21
73171;BME280;61381;50.118;19.962;2023-03-23T11:17:59;97952.75;;;19.30;47.18
73171;BME280;61381;50.118;19.962;2023-03-23T11:23:01;97951.13;;;19.45;48.55
73171;BME280;61381;50.118;19.962;2023-03-23T11:28:04;97942.47;;;19.98;48.95
73171;BME280;61381;50.118;19.962;2023-03-23T11:33:05;97951.97;;;19.85;48.16
73171;BME280;61381;50.118;19.962;2023-03-23T11:38:16;97933.25;;;20.03;46.77
73171;BME280;61381;50.118;19.962;2023-03-23T11:43:21;97929.88;;;20.33;46.54
73171;BME280;61381;50.118;19.962;2023-03-23T11:48:27;97944.06;;;19.80;44.40
73171;BME280;61381;50.118;19.962;2023-03-23T11:53:39;97944.31;;;19.35;46.04
73171;BME280;61381;50.118;19.962;2023-03-23T11:58:45;97950.13;;;18.98;47.41
73171;BME280;61381;50.118;19.962;2023-03-23T12:03:58;97942.09;;;18.70;48.05
73171;BME280;61381;50.118;19.962;2023-03-23T12:09:07;97945.94;;;18.69;48.36
73171;BME280;61381;50.118;19.962;2023-03-23T12:14:18;97949.34;;;18.66;48.41
73171;BME280;61381;50.118;19.962;2023-03-23T12:19:35;97933.09;;;18.50;49.06
73171;BME280;61381;50.118;19.962;2023-03-23T12:24:50;97938.41;;;18.46;49.37
73171;BME280;61381;50.118;19.962;2023-03-23T12:30:25;97928.59;;;18.42;50.04
73171;BME280;61381;50.118;19.962;2023-03-23T12:35:38;97933.84;;;18.34;50.15
73171;BME280;61381;50.118;19.962;2023-03-23T12:40:49;97930.09;;;18.39;50.34
73171;BME280;61381;50.118;19.962;2023-03-23T12:51:21;97924.94;;;18.66;49.14
73171;BME280;61381;50.118;19.962;2023-03-23T12:56:28;97926.38;;;19.11;49.37
73171;BME280;61381;50.118;19.962;2023-03-23T13:01:35;97929.47;;;18.78;49.94
73171;BME280;61381;50.118;19.962;2023-03-23T13:06:40;97929.22;;;18.35;51.48
73171;BME280;61381;50.118;19.962;2023-03-23T13:11:42;97930.88;;;18.08;51.77
73171;BME280;61381;50.118;19.962;2023-03-23T13:16:51;97927.00;;;17.80;53.82
73171;BME280;61381;50.118;19.962;2023-03-23T13:22:00;97924.97;;;17.61;54.10
73171;BME280;61381;50.118;19.962;2023-03-23T13:27:04;97916.06;;;17.48;54.62
73171;BME280;61381;50.118;19.962;2023-03-23T13:32:12;97911.09;;;17.22;54.86
73171;BME280;61381;50.118;19.962;2023-03-23T13:37:20;97900.19;;;17.06;56.04
73171;BME280;61381;50.118;19.962;2023-03-23T13:42:24;97906.69;;;17.18;56.35
73171;BME280;61381;50.118;19.962;2023-03-23T13:47:34;97911.50;;;17.37;56.62
73171;BME280;61381;50.118;19.962;2023-03-23T13:52:38;97914.53;;;17.47;55.69
73171;BME280;61381;50.118;19.962;2023-03-23T13:57:49;97914.63;;;17.51;55.98
73171;BME280;61381;50.118;19.962;2023-03-23T14:02:59;97917.09;;;17.44;56.81
73171;BME280;61381;50.118;19.962;2023-03-23T14:08:03;97911.84;;;17.63;55.24
73171;BME280;61381;50.118;19.962;2023-03-23T14:13:21;97908.88;;;17.69;54.83
73171;BME280;61381;50.118;19.962;2023-03-23T14:18:30;97918.78;;;17.48;55.72
73171;BME280;61381;50.118;19.962;2023-03-23T14:23:32;97909.09;;;17.47;56.31
73171;BME280;61381;50.118;19.962;2023-03-23T14:28:37;97903.38;;;17.37;56.82
73171;BME280;61381;50.118;19.962;2023-03-23T14:33:40;97898.66;;;17.34;55.95
73171;BME280;61381;50.118;19.962;2023-03-23T14:38:41;97891.66;;;17.33;56.13
73171;BME280;61381;50.118;19.962;2023-03-23T14:43:43;97881.94;;;17.32;55.82
73171;BME280;61381;50.118;19.962;2023-03-23T14:48:45;97890.31;;;17.26;56.43
73171;BME280;61381;50.118;19.962;2023-03-23T14:53:46;97866.09;;;17.18;56.73
73171;BME280;61381;50.118;19.962;2023-03-23T14:58:48;97872.41;;;17.22;57.18
73171;BME280;61381;50.118;19.962;2023-03-23T15:04:02;97888.88;;;17.29;57.81
73171;BME280;61381;50.118;19.962;2023-03-23T15:09:09;97895.41;;;17.28;57.20
73171;BME280;61381;50.118;19.962;2023-03-23T15:14:15;97887.53;;;17.23;58.42
73171;BME280;61381;50.118;19.962;2023-03-23T15:19:22;97894.47;;;17.36;58.62
73171;BME280;61381;50.118;19.962;2023-03-23T15:24:27;97893.47;;;17.28;59.13
73171;BME280;61381;50.118;19.962;2023-03-23T15:29:32;97884.22;;;17.29;58.87
73171;BME280;61381;50.118;19.962;2023-03-23T15:34:35;97884.91;;;17.26;58.22
73171;BME280;61381;50.118;19.962;2023-03-23T15:39:41;97891.25;;;17.18;58.62
73171;BME280;61381;50.118;19.962;2023-03-23T15:44:42;97885.31;;;17.00;58.74
73171;BME280;61381;50.118;19.962;2023-03-23T15:49:45;97884.44;;;16.71;61.17
73171;BME280;61381;50.118;19.962;2023-03-23T15:54:47;97876.00;;;16.61;60.91
73171;BME280;61381;50.118;19.962;2023-03-23T15:59:48;97882.06;;;16.70;60.99
73171;BME280;61381;50.118;19.962;2023-03-23T16:04:51;97881.50;;;16.52;62.08
73171;BME280;61381;50.118;19.962;2023-03-23T16:09:52;97892.91;;;16.45;61.90
73171;BME280;61381;50.118;19.962;2023-03-23T16:14:53;97880.94;;;16.21;63.39
73171;BME280;61381;50.118;19.962;2023-03-23T16:19:56;97888.47;;;16.16;62.97
73171;BME280;61381;50.118;19.962;2023-03-23T16:24:57;97888.69;;;16.11;64.04
73171;BME280;61381;50.118;19.962;2023-03-23T16:29:58;97884.16;;;15.90;64.58
73171;BME280;61381;50.118;19.962;2023-03-23T16:35:01;97872.00;;;15.63;66.60
73171;BME280;61381;50.118;19.962;2023-03-23T16:40:03;97866.69;;;15.54;66.39
73171;BME280;61381;50.118;19.962;2023-03-23T16:45:05;97877.34;;;15.50;67.87
73171;BME280;61381;50.118;19.962;2023-03-23T16:50:11;97887.66;;;15.36;70.59
73171;BME280;61381;50.118;19.962;2023-03-23T16:55:15;97887.41;;;15.29;68.50
73171;BME280;61381;50.118;19.962;2023-03-23T17:00:17;97880.03;;;15.17;69.18
73171;BME280;61381;50.118;19.962;2023-03-23T17:05:21;97883.94;;;14.77;71.73
73171;BME280;61381;50.118;19.962;2023-03-23T17:10:25;97884.75;;;14.78;69.30
73171;BME280;61381;50.118;19.962;2023-03-23T17:15:26;97894.34;;;14.58;70.17
73171;BME280;61381;50.118;19.962;2023-03-23T17:20:29;97907.38;;;14.47;71.61
73171;BME280;61381;50.118;19.962;2023-03-23T17:25:30;97910.94;;;14.30;71.91
73171;BME280;61381;50.118;19.962;2023-03-23T17:30:32;97907.22;;;14.05;74.64
73171;BME280;61381;50.118;19.962;2023-03-23T17:35:34;97909.16;;;13.96;72.89
73171;BME280;61381;50.118;19.962;2023-03-23T17:40:36;97909.28;;;13.99;72.74
73171;BME280;61381;50.118;19.962;2023-03-23T17:45:37;97905.69;;;13.86;73.90
73171;BME280;61381;50.118;19.962;2023-03-23T17:50:39;97910.31;;;13.77;74.37
73171;BME280;61381;50.118;19.962;2023-03-23T17:55:41;97917.78;;;13.54;75.92
73171;BME280;61381;50.118;19.962;2023-03-23T18:00:42;97920.28;;;13.50;74.68
73171;BME280;61381;50.118;19.962;2023-03-23T18:05:45;97922.19;;;13.41;75.78
73171;BME280;61381;50.118;19.962;2023-03-23T18:10:48;97929.31;;;13.46;75.54
73171;BME280;61381;50.118;19.962;2023-03-23T18:15:49;97923.31;;;13.49;74.29
73171;BME280;61381;50.118;19.962;2023-03-23T18:20:54;97917.13;;;13.40;73.68
73171;BME280;61381;50.118;19.962;2023-03-23T18:25:55;97916.16;;;13.18;76.63
73171;BME280;61381;50.118;19.962;2023-03-23T18:31:02;97924.84;;;12.97;79.61
73171;BME280;61381;50.118;19.962;2023-03-23T18:36:05;97928.78;;;12.91;78.31
73171;BME280;61381;50.118;19.962;2023-03-23T18:41:07;97936.81;;;12.82;78.37
73171;BME280;61381;50.118;19.962;2023-03-23T18:46:08;97938.41;;;12.83;78.61
73171;BME280;61381;50.118;19.962;2023-03-23T18:51:11;97942.84;;;12.88;82.06
73171;BME280;61381;50.118;19.962;2023-03-23T18:56:13;97942.53;;;12.90;80.81
73171;BME280;61381;50.118;19.962;2023-03-23T19:01:16;97936.34;;;12.80;83.47
73171;BME280;61381;50.118;19.962;2023-03-23T19:06:21;97945.97;;;12.73;82.70
73171;BME280;61381;50.118;19.962;2023-03-23T19:11:23;97946.09;;;12.67;82.78
73171;BME280;61381;50.118;19.962;2023-03-23T19:16:25;97948.28;;;12.57;84.20
73171;BME280;61381;50.118;19.962;2023-03-23T19:21:27;97956.13;;;12.44;95.55
73171;BME280;61381;50.118;19.962;2023-03-23T19:26:30;97964.50;;;12.43;94.21
73171;BME280;61381;50.118;19.962;2023-03-23T19:31:32;97966.75;;;12.18;92.15
73171;BME280;61381;50.118;19.962;2023-03-23T19:36:35;97959.38;;;12.32;85.79
73171;BME280;61381;50.118;19.962;2023-03-23T19:41:36;97941.69;;;12.31;86.76
73171;BME280;61381;50.118;19.962;2023-03-23T19:46:37;97944.38;;;12.31;86.89
73171;BME280;61381;50.118;19.962;2023-03-23T19:51:40;97948.25;;;12.17;85.47
73171;BME280;61381;50.118;19.962;2023-03-23T19:56:41;97949.56;;;11.97;86.60
73171;BME280;61381;50.118;19.962;2023-03-23T20:01:42;97939.53;;;11.88;87.85
73171;BME280;61381;50.118;19.962;2023-03-23T20:06:45;97949.66;;;11.69;89.33
73171;BME280;61381;50.118;19.962;2023-03-23T20:11:47;97947.66;;;11.52;90.19
73171;BME280;61381;50.118;19.962;2023-03-23T20:16:48;97952.53;;;11.36;91.50
73171;BME280;61381;50.118;19.962;2023-03-23T20:21:50;97955.47;;;11.26;93.73
73171;BME280;61381;50.118;19.962;2023-03-23T20:26:51;97955.38;;;11.17;94.21
73171;BME280;61381;50.118;19.962;2023-03-23T20:31:52;97955.09;;;11.18;93.42
73171;BME280;61381;50.118;19.962;2023-03-23T20:36:56;97964.59;;;11.24;92.93
73171;BME280;61381;50.118;19.962;2023-03-23T20:42:00;97965.75;;;11.46;89.85
73171;BME280;61381;50.118;19.962;2023-03-23T20:47:02;97981.59;;;11.56;89.36
73171;BME280;61381;50.118;19.962;2023-03-23T20:52:06;97985.34;;;11.92;86.35
73171;BME280;61381;50.118;19.962;2023-03-23T20:57:07;97988.47;;;12.08;84.58
73171;BME280;61381;50.118;19.962;2023-03-23T21:02:12;97987.84;;;12.11;84.75
73171;BME280;61381;50.118;19.962;2023-03-23T21:07:15;97979.56;;;11.99;86.51
73171;BME280;61381;50.118;19.962;2023-03-23T21:12:16;98001.75;;;11.90;87.97
73171;BME280;61381;50.118;19.962;2023-03-23T21:17:17;97996.91;;;11.78;91.08
73171;BME280;61381;50.118;19.962;2023-03-23T21:22:20;97990.91;;;11.59;91.22
73171;BME280;61381;50.118;19.962;2023-03-23T21:27:21;97986.59;;;11.49;91.11
73171;BME280;61381;50.118;19.962;2023-03-23T21:32:22;97975.47;;;11.42;89.75
73171;BME280;61381;50.118;19.962;2023-03-23T21:37:25;97963.69;;;11.66;86.89
73171;BME280;61381;50.118;19.962;2023-03-23T21:42:26;97961.91;;;11.61;91.04
73171;BME280;61381;50.118;19.962;2023-03-23T21:47:27;97955.06;;;11.32;95.25
73171;BME280;61381;50.118;19.962;2023-03-23T21:52:31;97964.47;;;11.30;93.96
73171;BME280;61381;50.118;19.962;2023-03-23T21:57:33;97964.00;;;11.28;98.63
73171;BME280;61381;50.118;19.962;2023-03-23T22:02:34;97968.78;;;11.17;97.68
73171;BME280;61381;50.118;19.962;2023-03-23T22:07:36;97967.78;;;11.13;96.27
73171;BME280;61381;50.118;19.962;2023-03-23T22:12:38;97972.00;;;10.91;100.00
73171;BME280;61381;50.118;19.962;2023-03-23T22:17:40;97980.34;;;10.89;100.00
73171;BME280;61381;50.118;19.962;2023-03-23T22:22:44;97983.47;;;11.05;99.38
73171;BME280;61381;50.118;19.962;2023-03-23T22:27:45;97985.06;;;11.20;97.50
73171;BME280;61381;50.118;19.962;2023-03-23T22:32:46;97983.56;;;11.28;95.08
73171;BME280;61381;50.118;19.962;2023-03-23T22:37:49;97984.84;;;11.31;97.02
73171;BME280;61381;50.118;19.962;2023-03-23T22:42:50;97986.53;;;11.27;96.77
73171;BME280;61381;50.118;19.962;2023-03-23T22:47:51;97991.03;;;11.17;100.00
73171;BME280;61381;50.118;19.962;2023-03-23T22:52:54;97994.78;;;11.16;99.67
73171;BME280;61381;50.118;19.962;2023-03-23T22:57:55;97992.91;;;11.17;98.73
73171;BME280;61381;50.118;19.962;2023-03-23T23:02:57;97994.22;;;11.19;98.83
73171;BME280;61381;50.118;19.962;2023-03-23T23:08:00;97989.72;;;11.29;98.03
73171;BME280;61381;50.118;19.962;2023-03-23T23:13:01;97990.03;;;11.27;99.12
73171;BME280;61381;50.118;19.962;2023-03-23T23:18:03;97979.00;;;11.29;96.09
73171;BME280;61381;50.118;19.962;2023-03-23T23:23:06;97997.06;;;11.37;94.16
73171;BME280;61381;50.118;19.962;2023-03-23T23:28:08;97989.31;;;11.35;93.70
73171;BME280;61381;50.118;19.962;2023-03-23T23:33:09;97990.88;;;11.50;92.34
73171;BME280;61381;50.118;19.962;2023-03-23T23:38:12;97984.59;;;11.55;92.63
73171;BME280;61381;50.118;19.962;2023-03-23T23:43:15;97980.56;;;11.66;91.65
73171;BME280;61381;50.118;19.962;2023-03-23T23:48:16;97984.41;;;11.74;91.10
73171;BME280;61381;50.118;19.962;2023-03-23T23:53:19;97975.69;;;11.68;92.30
73171;BME280;61381;50.118;19.962;2023-03-23T23:58:20;97977.75;;;11.71;92.27
